Teruhou Maru No.22 — JD3202 — position and weather

sailwx.info

Track history (hours):
 
Tides and Currents Weather Stations Pressure Air Temp Water Temp Dewpoint Dewpoint Depression Visibility Wind Speed Wind Dir Waves Ship Positions

Teruhou Maru No.22

Last reported at 2014-Dec-18 06:33 UTC. Time now 2014-Dec-18 07:29 UTC.
Position N 35°23' E 139°40'.

Length 76 m; draft 4 m.

Type: Cargo ship. MMSI: 431002552.

Date/timePositionNaut miles runAvg speedWind from/ knotsBaromVisibWave heightAir tempDewpointWater temp
2014-Dec-18 06:33N 35°23' E 139°40'0 0.0
2014-Dec-18 05:33N 35°23' E 139°40'0 0.0
2014-Dec-18 04:34N 35°23' E 139°40'0 0.0
2014-Dec-18 03:33N 35°23' E 139°40'0 0.0
2014-Dec-18 02:33N 35°23' E 139°40'0 0.0
2014-Dec-18 01:33N 35°23' E 139°40'0 0.0
2014-Dec-18 00:34N 35°23' E 139°40'0 0.0
2014-Dec-17 23:33N 35°23' E 139°40'0 0.0
2014-Dec-17 22:33N 35°23' E 139°40'0 0.1
2014-Dec-17 21:33N 35°23' E 139°40'0 0.1
2014-Dec-17 20:34N 35°23' E 139°40'0 0.0
2014-Dec-17 19:33N 35°23' E 139°40'0 0.0
2014-Dec-17 18:34N 35°23' E 139°40'0 0.0
2014-Dec-17 17:34N 35°23' E 139°40'0 0.0
2014-Dec-17 16:33N 35°23' E 139°40'0 0.0
2014-Dec-17 15:33N 35°23' E 139°40'0 0.0
2014-Dec-17 14:32N 35°23' E 139°40'0 0.0
2014-Dec-17 13:33N 35°23' E 139°40'0 0.0
2014-Dec-17 12:33N 35°23' E 139°40'0 0.0
2014-Dec-17 11:33N 35°23' E 139°40'0 0.0
2014-Dec-17 10:33N 35°23' E 139°40'0 0.0
2014-Dec-17 09:33N 35°23' E 139°40'0 0.0
2014-Dec-17 08:33N 35°23' E 139°40'0 0.0
2014-Dec-17 07:32N 35°23' E 139°40'0 0.0
2014-Dec-17 06:33N 35°23' E 139°40'0 0.0
2014-Dec-17 05:33N 35°23' E 139°40'0 0.0
2014-Dec-17 04:33N 35°23' E 139°40'0 0.0
2014-Dec-17 03:34N 35°23' E 139°40'0 0.0
2014-Dec-17 02:33N 35°23' E 139°40'0 0.0
2014-Dec-17 01:32N 35°23' E 139°40'0 0.0
2014-Dec-17 00:33N 35°23' E 139°40'0 0.0
2014-Dec-16 23:33N 35°23' E 139°40'0 0.0
2014-Dec-16 22:33N 35°23' E 139°40'0 0.0
2014-Dec-16 21:32N 35°23' E 139°40'0 0.0
2014-Dec-16 20:33N 35°23' E 139°40'0 0.0
2014-Dec-16 19:29N 35°23' E 139°40'0 0.0
2014-Dec-16 18:32N 35°23' E 139°40'0 0.0
2014-Dec-16 17:33N 35°23' E 139°40'0 0.0
2014-Dec-16 16:32N 35°23' E 139°40'0 0.0
2014-Dec-16 15:33N 35°23' E 139°40'0 0.0
2014-Dec-16 14:33N 35°23' E 139°40'0 0.1
2014-Dec-16 13:33N 35°23' E 139°40'0 0.0
2014-Dec-16 12:33N 35°23' E 139°40'0 0.1
2014-Dec-16 11:33N 35°23' E 139°40'0 0.0
2014-Dec-16 10:33N 35°23' E 139°40'0 0.0
2014-Dec-16 09:33N 35°23' E 139°40'0 0.0
2014-Dec-16 08:33N 35°23' E 139°40'0 0.0
2014-Dec-16 07:33N 35°23' E 139°40'0 0.1
2014-Dec-16 06:33N 35°23' E 139°40'0 0.0
2014-Dec-16 05:33N 35°23' E 139°40'0 0.1
2014-Dec-16 04:33N 35°23' E 139°40'0 0.0
2014-Dec-16 03:32N 35°23' E 139°40'0 0.0
2014-Dec-16 02:33N 35°23' E 139°40'0 0.0
2014-Dec-16 01:22N 35°23' E 139°40'0 0.0
2014-Dec-16 00:26N 35°23' E 139°40'0 0.0
2014-Dec-15 23:33N 35°23' E 139°40'0 0.0
2014-Dec-15 22:33N 35°23' E 139°40'0 0.1
2014-Dec-15 21:33N 35°23' E 139°40'0 0.1
2014-Dec-15 20:33N 35°23' E 139°40'0 0.0
2014-Dec-15 19:33N 35°23' E 139°40'0 0.0
2014-Dec-15 18:33N 35°23' E 139°40'0 0.0
2014-Dec-15 17:33N 35°23' E 139°40'0 0.0
2014-Dec-15 16:33N 35°23' E 139°40'0 0.0
2014-Dec-15 15:33N 35°23' E 139°40'0 0.2
2014-Dec-15 14:33N 35°23' E 139°40'9 9.0
2014-Dec-15 13:32N 35°21' E 139°51'0 0.0
2014-Dec-15 08:05N 35°21' E 139°51'2 3.4
2014-Dec-15 07:33N 35°22' E 139°49'0 0.0
2014-Dec-15 06:33N 35°22' E 139°49'0 0.0
2014-Dec-15 05:33N 35°22' E 139°49'0 0.0
2014-Dec-15 04:33N 35°22' E 139°49'0 0.0
2014-Dec-15 03:33N 35°22' E 139°49'0 0.0
2014-Dec-15 02:29N 35°22' E 139°49'0 0.0
2014-Dec-15 01:31N 35°22' E 139°49'0 0.0
2014-Dec-15 00:33N 35°22' E 139°49'0 0.0
2014-Dec-14 23:25N 35°22' E 139°49'0 0.3
2014-Dec-14 22:33N 35°22' E 139°49'4 1.1
2014-Dec-14 19:09N 35°22' E 139°54'1 0.1
2014-Dec-14 14:31N 35°22' E 139°53'0 0.0
2014-Dec-14 13:33N 35°22' E 139°53'0 0.0
2014-Dec-14 12:33N 35°22' E 139°53'0 0.0
2014-Dec-14 11:33N 35°22' E 139°53'0 0.0
2014-Dec-14 09:22N 35°22' E 139°53'0 0.0
2014-Dec-14 08:31N 35°22' E 139°53'0 0.1
2014-Dec-14 07:33N 35°22' E 139°53'0 0.0
2014-Dec-14 06:32N 35°22' E 139°53'0 0.0
2014-Dec-14 05:33N 35°22' E 139°53'0 0.0
2014-Dec-14 04:33N 35°22' E 139°53'0 0.0
2014-Dec-14 03:33N 35°22' E 139°53'0 0.0
2014-Dec-14 02:32N 35°22' E 139°53'0 0.0
2014-Dec-14 01:33N 35°22' E 139°53'0 0.0
2014-Dec-14 00:30N 35°22' E 139°53'5 5.2
2014-Dec-13 23:33N 35°25' E 139°49'13 0.6
2014-Dec-13 02:21N 35°36' E 139°57'5 1.0
2014-Dec-12 21:18N 35°36' E 139°51'0 0.1
2014-Dec-12 20:33N 35°36' E 139°51'0 0.0
2014-Dec-12 19:32N 35°36' E 139°51'0 0.0
2014-Dec-12 18:33N 35°36' E 139°51'0 0.0
2014-Dec-12 17:25N 35°36' E 139°51'0 0.0
2014-Dec-12 16:22N 35°36' E 139°51'0 0.0
2014-Dec-12 15:33N 35°36' E 139°51'0 0.0
2014-Dec-12 14:31N 35°36' E 139°51'1010.1
2014-Dec-12 13:32N 35°26' E 139°48'1010.2
2014-Dec-12 12:33N 35°16' E 139°46'  
Track history (hours):
 
Tides and Currents Weather Stations Pressure Air Temp Water Temp Dewpoint Dewpoint Depression Visibility Wind Speed Wind Dir Waves Ship Positions

Teruhou Maru No.22

Last reported at 2014-Dec-18 06:33 UTC. Time now 2014-Dec-18 07:29 UTC.
Position N 35°23' E 139°40'.

Length 76 m; draft 4 m.

Type: Cargo ship. MMSI: 431002552.

Date/timePositionNaut miles runAvg speedWind from/ knotsBaromVisibWave heightAir tempDewpointWater temp
2014-Dec-18 06:33N 35°23' E 139°40'0 0.0
2014-Dec-18 05:33N 35°23' E 139°40'0 0.0
2014-Dec-18 04:34N 35°23' E 139°40'0 0.0
2014-Dec-18 03:33N 35°23' E 139°40'0 0.0
2014-Dec-18 02:33N 35°23' E 139°40'0 0.0
2014-Dec-18 01:33N 35°23' E 139°40'0 0.0
2014-Dec-18 00:34N 35°23' E 139°40'0 0.0
2014-Dec-17 23:33N 35°23' E 139°40'0 0.0
2014-Dec-17 22:33N 35°23' E 139°40'0 0.1
2014-Dec-17 21:33N 35°23' E 139°40'0 0.1
2014-Dec-17 20:34N 35°23' E 139°40'0 0.0
2014-Dec-17 19:33N 35°23' E 139°40'0 0.0
2014-Dec-17 18:34N 35°23' E 139°40'0 0.0
2014-Dec-17 17:34N 35°23' E 139°40'0 0.0
2014-Dec-17 16:33N 35°23' E 139°40'0 0.0
2014-Dec-17 15:33N 35°23' E 139°40'0 0.0
2014-Dec-17 14:32N 35°23' E 139°40'0 0.0
2014-Dec-17 13:33N 35°23' E 139°40'0 0.0
2014-Dec-17 12:33N 35°23' E 139°40'0 0.0
2014-Dec-17 11:33N 35°23' E 139°40'0 0.0
2014-Dec-17 10:33N 35°23' E 139°40'0 0.0
2014-Dec-17 09:33N 35°23' E 139°40'0 0.0
2014-Dec-17 08:33N 35°23' E 139°40'0 0.0
2014-Dec-17 07:32N 35°23' E 139°40'0 0.0
2014-Dec-17 06:33N 35°23' E 139°40'0 0.0
2014-Dec-17 05:33N 35°23' E 139°40'0 0.0
2014-Dec-17 04:33N 35°23' E 139°40'0 0.0
2014-Dec-17 03:34N 35°23' E 139°40'0 0.0
2014-Dec-17 02:33N 35°23' E 139°40'0 0.0
2014-Dec-17 01:32N 35°23' E 139°40'0 0.0
2014-Dec-17 00:33N 35°23' E 139°40'0 0.0
2014-Dec-16 23:33N 35°23' E 139°40'0 0.0
2014-Dec-16 22:33N 35°23' E 139°40'0 0.0
2014-Dec-16 21:32N 35°23' E 139°40'0 0.0
2014-Dec-16 20:33N 35°23' E 139°40'0 0.0
2014-Dec-16 19:29N 35°23' E 139°40'0 0.0
2014-Dec-16 18:32N 35°23' E 139°40'0 0.0
2014-Dec-16 17:33N 35°23' E 139°40'0 0.0
2014-Dec-16 16:32N 35°23' E 139°40'0 0.0
2014-Dec-16 15:33N 35°23' E 139°40'0 0.0
2014-Dec-16 14:33N 35°23' E 139°40'0 0.1
2014-Dec-16 13:33N 35°23' E 139°40'0 0.0
2014-Dec-16 12:33N 35°23' E 139°40'0 0.1
2014-Dec-16 11:33N 35°23' E 139°40'0 0.0
2014-Dec-16 10:33N 35°23' E 139°40'0 0.0
2014-Dec-16 09:33N 35°23' E 139°40'0 0.0
2014-Dec-16 08:33N 35°23' E 139°40'0 0.0
2014-Dec-16 07:33N 35°23' E 139°40'0 0.1
2014-Dec-16 06:33N 35°23' E 139°40'0 0.0
2014-Dec-16 05:33N 35°23' E 139°40'0 0.1
2014-Dec-16 04:33N 35°23' E 139°40'0 0.0
2014-Dec-16 03:32N 35°23' E 139°40'0 0.0
2014-Dec-16 02:33N 35°23' E 139°40'0 0.0
2014-Dec-16 01:22N 35°23' E 139°40'0 0.0
2014-Dec-16 00:26N 35°23' E 139°40'0 0.0
2014-Dec-15 23:33N 35°23' E 139°40'0 0.0
2014-Dec-15 22:33N 35°23' E 139°40'0 0.1
2014-Dec-15 21:33N 35°23' E 139°40'0 0.1
2014-Dec-15 20:33N 35°23' E 139°40'0 0.0
2014-Dec-15 19:33N 35°23' E 139°40'0 0.0
2014-Dec-15 18:33N 35°23' E 139°40'0 0.0
2014-Dec-15 17:33N 35°23' E 139°40'0 0.0
2014-Dec-15 16:33N 35°23' E 139°40'0 0.0
2014-Dec-15 15:33N 35°23' E 139°40'0 0.2
2014-Dec-15 14:33N 35°23' E 139°40'9 9.0
2014-Dec-15 13:32N 35°21' E 139°51'0 0.0
2014-Dec-15 08:05N 35°21' E 139°51'2 3.4
2014-Dec-15 07:33N 35°22' E 139°49'0 0.0
2014-Dec-15 06:33N 35°22' E 139°49'0 0.0
2014-Dec-15 05:33N 35°22' E 139°49'0 0.0
2014-Dec-15 04:33N 35°22' E 139°49'0 0.0
2014-Dec-15 03:33N 35°22' E 139°49'0 0.0
2014-Dec-15 02:29N 35°22' E 139°49'0 0.0
2014-Dec-15 01:31N 35°22' E 139°49'0 0.0
2014-Dec-15 00:33N 35°22' E 139°49'0 0.0
2014-Dec-14 23:25N 35°22' E 139°49'0 0.3
2014-Dec-14 22:33N 35°22' E 139°49'4 1.1
2014-Dec-14 19:09N 35°22' E 139°54'1 0.1
2014-Dec-14 14:31N 35°22' E 139°53'0 0.0
2014-Dec-14 13:33N 35°22' E 139°53'0 0.0
2014-Dec-14 12:33N 35°22' E 139°53'0 0.0
2014-Dec-14 11:33N 35°22' E 139°53'0 0.0
2014-Dec-14 09:22N 35°22' E 139°53'0 0.0
2014-Dec-14 08:31N 35°22' E 139°53'0 0.1
2014-Dec-14 07:33N 35°22' E 139°53'0 0.0
2014-Dec-14 06:32N 35°22' E 139°53'0 0.0
2014-Dec-14 05:33N 35°22' E 139°53'0 0.0
2014-Dec-14 04:33N 35°22' E 139°53'0 0.0
2014-Dec-14 03:33N 35°22' E 139°53'0 0.0
2014-Dec-14 02:32N 35°22' E 139°53'0 0.0
2014-Dec-14 01:33N 35°22' E 139°53'0 0.0
2014-Dec-14 00:30N 35°22' E 139°53'5 5.2
2014-Dec-13 23:33N 35°25' E 139°49'13 0.6
2014-Dec-13 02:21N 35°36' E 139°57'5 1.0
2014-Dec-12 21:18N 35°36' E 139°51'0 0.1
2014-Dec-12 20:33N 35°36' E 139°51'0 0.0
2014-Dec-12 19:32N 35°36' E 139°51'0 0.0
2014-Dec-12 18:33N 35°36' E 139°51'0 0.0
2014-Dec-12 17:25N 35°36' E 139°51'0 0.0
2014-Dec-12 16:22N 35°36' E 139°51'0 0.0
2014-Dec-12 15:33N 35°36' E 139°51'0 0.0
2014-Dec-12 14:31N 35°36' E 139°51'1010.1
2014-Dec-12 13:32N 35°26' E 139°48'1010.2
2014-Dec-12 12:33N 35°16' E 139°46'  

Dump ship's entire track history